sensor_id;sensor_type;location;lat;lon;timestamp;pressure;altitude;pressure_sealevel;temperature;humidity
70304;BME280;57712;48.752;11.348;2022-08-03T00:01:49;97591.91;;;20.66;63.16
70304;BME280;57712;48.752;11.348;2022-08-03T00:04:16;97591.66;;;20.85;62.19
70304;BME280;57712;48.752;11.348;2022-08-03T00:06:42;97585.34;;;20.69;63.90
70304;BME280;57712;48.752;11.348;2022-08-03T00:09:10;97596.69;;;20.66;64.14
70304;BME280;57712;48.752;11.348;2022-08-03T00:11:36;97582.69;;;20.60;63.46
70304;BME280;57712;48.752;11.348;2022-08-03T00:14:04;97583.25;;;20.64;63.19
70304;BME280;57712;48.752;11.348;2022-08-03T00:16:31;97581.66;;;20.58;64.31
70304;BME280;57712;48.752;11.348;2022-08-03T00:18:59;97578.25;;;20.68;63.28
70304;BME280;57712;48.752;11.348;2022-08-03T00:21:27;97584.03;;;20.65;63.29
70304;BME280;57712;48.752;11.348;2022-08-03T00:23:54;97576.97;;;20.49;64.62
70304;BME280;57712;48.752;11.348;2022-08-03T00:26:20;97582.53;;;20.49;64.16
70304;BME280;57712;48.752;11.348;2022-08-03T00:28:48;97582.25;;;20.47;64.25
70304;BME280;57712;48.752;11.348;2022-08-03T00:31:15;97578.31;;;20.54;64.28
70304;BME280;57712;48.752;11.348;2022-08-03T00:33:53;97581.34;;;20.41;64.33
70304;BME280;57712;48.752;11.348;2022-08-03T00:36:25;97577.84;;;20.26;64.91
70304;BME280;57712;48.752;11.348;2022-08-03T00:38:52;97574.88;;;20.44;63.70
70304;BME280;57712;48.752;11.348;2022-08-03T00:41:19;97581.00;;;20.33;64.71
70304;BME280;57712;48.752;11.348;2022-08-03T00:43:45;97580.41;;;20.29;64.79
70304;BME280;57712;48.752;11.348;2022-08-03T00:46:13;97575.81;;;20.26;64.69
70304;BME280;57712;48.752;11.348;2022-08-03T00:48:47;97572.00;;;20.24;64.60
70304;BME280;57712;48.752;11.348;2022-08-03T00:51:14;97567.69;;;20.23;64.11
70304;BME280;57712;48.752;11.348;2022-08-03T00:53:41;97576.81;;;20.23;64.32
70304;BME280;57712;48.752;11.348;2022-08-03T00:56:12;97574.47;;;20.22;64.62
70304;BME280;57712;48.752;11.348;2022-08-03T00:58:39;97580.03;;;20.22;63.45
70304;BME280;57712;48.752;11.348;2022-08-03T01:01:05;97574.78;;;20.09;64.44
70304;BME280;57712;48.752;11.348;2022-08-03T01:03:32;97580.00;;;20.01;64.53
70304;BME280;57712;48.752;11.348;2022-08-03T01:06:07;97577.69;;;19.85;64.56
70304;BME280;57712;48.752;11.348;2022-08-03T01:08:43;97596.09;;;19.44;65.45
70304;BME280;57712;48.752;11.348;2022-08-03T01:11:26;97593.41;;;19.35;64.75
70304;BME280;57712;48.752;11.348;2022-08-03T01:25:27;97584.97;;;19.29;65.47
70304;BME280;57712;48.752;11.348;2022-08-03T01:30:34;97584.50;;;19.30;64.60
70304;BME280;57712;48.752;11.348;2022-08-03T01:33:05;97585.00;;;19.44;63.72
70304;BME280;57712;48.752;11.348;2022-08-03T01:35:49;97580.09;;;19.39;64.70
70304;BME280;57712;48.752;11.348;2022-08-03T01:38:26;97577.22;;;19.33;64.95
70304;BME280;57712;48.752;11.348;2022-08-03T01:40:55;97579.97;;;19.33;64.48
70304;BME280;57712;48.752;11.348;2022-08-03T01:43:27;97578.59;;;19.14;65.39
70304;BME280;57712;48.752;11.348;2022-08-03T01:46:17;97574.06;;;19.40;63.47
70304;BME280;57712;48.752;11.348;2022-08-03T01:48:47;97576.41;;;19.18;65.61
70304;BME280;57712;48.752;11.348;2022-08-03T01:51:15;97585.31;;;19.22;65.13
70304;BME280;57712;48.752;11.348;2022-08-03T01:53:43;97572.19;;;19.22;65.67
70304;BME280;57712;48.752;11.348;2022-08-03T01:56:12;97575.47;;;19.21;65.46
70304;BME280;57712;48.752;11.348;2022-08-03T01:58:39;97569.00;;;19.15;66.40
70304;BME280;57712;48.752;11.348;2022-08-03T02:01:07;97567.72;;;19.01;66.79
70304;BME280;57712;48.752;11.348;2022-08-03T02:03:37;97577.41;;;19.06;66.73
70304;BME280;57712;48.752;11.348;2022-08-03T02:06:28;97568.69;;;18.98;67.58
70304;BME280;57712;48.752;11.348;2022-08-03T02:09:17;97568.56;;;18.92;68.23
70304;BME280;57712;48.752;11.348;2022-08-03T02:11:46;97568.91;;;18.85;67.62
70304;BME280;57712;48.752;11.348;2022-08-03T02:14:14;97569.06;;;19.06;66.31
70304;BME280;57712;48.752;11.348;2022-08-03T02:16:42;97578.59;;;18.90;67.31
70304;BME280;57712;48.752;11.348;2022-08-03T02:19:10;97569.75;;;19.00;66.45
70304;BME280;57712;48.752;11.348;2022-08-03T02:21:37;97571.41;;;18.83;66.80
70304;BME280;57712;48.752;11.348;2022-08-03T02:24:25;97551.31;;;18.88;67.24
70304;BME280;57712;48.752;11.348;2022-08-03T02:26:54;97567.69;;;18.86;66.86
70304;BME280;57712;48.752;11.348;2022-08-03T02:29:24;97571.78;;;18.76;67.84
70304;BME280;57712;48.752;11.348;2022-08-03T02:32:09;97568.66;;;18.74;67.84
70304;BME280;57712;48.752;11.348;2022-08-03T02:34:39;97568.03;;;18.79;67.57
70304;BME280;57712;48.752;11.348;2022-08-03T02:37:07;97570.47;;;18.86;67.02
70304;BME280;57712;48.752;11.348;2022-08-03T02:39:35;97582.25;;;18.72;67.85
70304;BME280;57712;48.752;11.348;2022-08-03T02:42:04;97589.06;;;18.71;67.49
70304;BME280;57712;48.752;11.348;2022-08-03T02:44:34;97569.16;;;18.63;67.83
70304;BME280;57712;48.752;11.348;2022-08-03T02:47:04;97568.78;;;18.56;67.94
70304;BME280;57712;48.752;11.348;2022-08-03T02:49:32;97572.00;;;18.54;67.77
70304;BME280;57712;48.752;11.348;2022-08-03T02:52:16;97573.88;;;18.48;67.95
70304;BME280;57712;48.752;11.348;2022-08-03T02:54:45;97574.66;;;18.49;68.20
70304;BME280;57712;48.752;11.348;2022-08-03T02:57:13;97571.59;;;18.46;68.02
70304;BME280;57712;48.752;11.348;2022-08-03T02:59:41;97568.84;;;18.37;68.25
70304;BME280;57712;48.752;11.348;2022-08-03T03:02:08;97571.53;;;18.23;75.13
70304;BME280;57712;48.752;11.348;2022-08-03T03:04:35;97566.03;;;18.13;76.84
70304;BME280;57712;48.752;11.348;2022-08-03T03:07:11;97574.53;;;17.92;76.51
70304;BME280;57712;48.752;11.348;2022-08-03T03:09:41;97577.31;;;17.92;76.98
70304;BME280;57712;48.752;11.348;2022-08-03T03:12:09;97579.66;;;17.93;77.15
70304;BME280;57712;48.752;11.348;2022-08-03T03:14:37;97570.59;;;17.83;78.05
70304;BME280;57712;48.752;11.348;2022-08-03T03:17:08;97575.81;;;17.81;77.15
70304;BME280;57712;48.752;11.348;2022-08-03T03:19:35;97575.53;;;17.70;76.92
70304;BME280;57712;48.752;11.348;2022-08-03T03:22:04;97575.97;;;17.59;77.53
70304;BME280;57712;48.752;11.348;2022-08-03T03:24:34;97577.03;;;17.80;76.12
70304;BME280;57712;48.752;11.348;2022-08-03T03:27:01;97571.19;;;17.78;71.66
70304;BME280;57712;48.752;11.348;2022-08-03T03:29:28;97575.22;;;17.77;71.07
70304;BME280;57712;48.752;11.348;2022-08-03T03:32:05;97573.94;;;17.87;70.68
70304;BME280;57712;48.752;11.348;2022-08-03T03:34:35;97573.03;;;17.81;70.56
70304;BME280;57712;48.752;11.348;2022-08-03T03:37:01;97577.03;;;17.80;70.36
70304;BME280;57712;48.752;11.348;2022-08-03T03:39:28;97582.91;;;17.73;70.18
70304;BME280;57712;48.752;11.348;2022-08-03T03:41:54;97571.50;;;17.71;70.08
70304;BME280;57712;48.752;11.348;2022-08-03T03:44:26;97582.59;;;17.71;70.09
70304;BME280;57712;48.752;11.348;2022-08-03T03:46:54;97582.56;;;17.89;69.18
70304;BME280;57712;48.752;11.348;2022-08-03T03:49:21;97584.59;;;17.71;71.14
70304;BME280;57712;48.752;11.348;2022-08-03T03:51:51;97584.44;;;17.83;68.97
70304;BME280;57712;48.752;11.348;2022-08-03T03:54:18;97583.22;;;17.84;68.53
70304;BME280;57712;48.752;11.348;2022-08-03T03:56:45;97585.69;;;17.73;70.07
70304;BME280;57712;48.752;11.348;2022-08-03T03:59:12;97588.28;;;17.77;69.75
70304;BME280;57712;48.752;11.348;2022-08-03T04:01:38;97581.66;;;17.65;70.68
70304;BME280;57712;48.752;11.348;2022-08-03T04:04:05;97572.13;;;17.66;70.40
70304;BME280;57712;48.752;11.348;2022-08-03T04:06:50;97581.31;;;17.91;68.13
70304;BME280;57712;48.752;11.348;2022-08-03T04:09:37;97589.34;;;17.88;68.72
70304;BME280;57712;48.752;11.348;2022-08-03T04:12:35;97582.88;;;17.92;67.89
70304;BME280;57712;48.752;11.348;2022-08-03T04:15:17;97588.47;;;17.73;70.30
70304;BME280;57712;48.752;11.348;2022-08-03T04:17:47;97592.75;;;17.83;70.78
70304;BME280;57712;48.752;11.348;2022-08-03T04:20:17;97590.00;;;17.83;69.74
70304;BME280;57712;48.752;11.348;2022-08-03T04:22:48;97595.34;;;17.96;69.04
70304;BME280;57712;48.752;11.348;2022-08-03T04:25:17;97592.09;;;17.98;69.03
70304;BME280;57712;48.752;11.348;2022-08-03T04:27:47;97604.72;;;17.99;70.00
70304;BME280;57712;48.752;11.348;2022-08-03T04:30:35;97598.56;;;18.04;68.31
70304;BME280;57712;48.752;11.348;2022-08-03T04:33:05;97605.75;;;18.10;67.93
70304;BME280;57712;48.752;11.348;2022-08-03T04:35:33;97614.38;;;18.12;68.82
70304;BME280;57712;48.752;11.348;2022-08-03T04:38:21;97603.47;;;18.09;69.21
70304;BME280;57712;48.752;11.348;2022-08-03T04:40:51;97611.47;;;18.07;69.45
70304;BME280;57712;48.752;11.348;2022-08-03T04:43:19;97616.22;;;18.25;68.05
70304;BME280;57712;48.752;11.348;2022-08-03T04:45:48;97617.84;;;18.40;67.76
70304;BME280;57712;48.752;11.348;2022-08-03T04:48:15;97615.97;;;18.46;66.47
70304;BME280;57712;48.752;11.348;2022-08-03T04:50:43;97620.56;;;18.50;69.41
70304;BME280;57712;48.752;11.348;2022-08-03T04:53:09;97616.81;;;18.62;67.94
70304;BME280;57712;48.752;11.348;2022-08-03T04:55:36;97612.75;;;18.81;65.66
70304;BME280;57712;48.752;11.348;2022-08-03T04:58:03;97618.44;;;18.87;66.44
70304;BME280;57712;48.752;11.348;2022-08-03T05:00:30;97618.97;;;19.00;65.84
70304;BME280;57712;48.752;11.348;2022-08-03T05:02:56;97624.13;;;18.83;65.62
70304;BME280;57712;48.752;11.348;2022-08-03T05:05:23;97625.03;;;18.89;66.26
70304;BME280;57712;48.752;11.348;2022-08-03T05:07:50;97625.47;;;18.97;67.68
70304;BME280;57712;48.752;11.348;2022-08-03T05:10:18;97630.22;;;18.96;63.94
70304;BME280;57712;48.752;11.348;2022-08-03T05:12:46;97624.94;;;19.08;65.57
70304;BME280;57712;48.752;11.348;2022-08-03T05:15:13;97626.50;;;19.23;65.04
70304;BME280;57712;48.752;11.348;2022-08-03T05:17:40;97638.91;;;19.13;63.40
70304;BME280;57712;48.752;11.348;2022-08-03T05:20:07;97635.09;;;19.11;63.15
70304;BME280;57712;48.752;11.348;2022-08-03T05:22:34;97633.44;;;19.28;64.04
70304;BME280;57712;48.752;11.348;2022-08-03T05:25:01;97622.41;;;19.57;64.00
70304;BME280;57712;48.752;11.348;2022-08-03T05:27:27;97636.06;;;19.85;62.61
70304;BME280;57712;48.752;11.348;2022-08-03T05:29:54;97628.81;;;20.02;62.74
70304;BME280;57712;48.752;11.348;2022-08-03T05:32:41;97633.78;;;20.13;62.04
70304;BME280;57712;48.752;11.348;2022-08-03T05:35:07;97628.38;;;20.39;62.08
70304;BME280;57712;48.752;11.348;2022-08-03T05:37:54;97631.81;;;20.63;62.44
70304;BME280;57712;48.752;11.348;2022-08-03T05:40:21;97628.81;;;20.82;60.77
70304;BME280;57712;48.752;11.348;2022-08-03T05:42:48;97630.94;;;21.07;60.98
70304;BME280;57712;48.752;11.348;2022-08-03T05:45:15;97634.22;;;21.46;57.82
70304;BME280;57712;48.752;11.348;2022-08-03T05:47:44;97625.53;;;21.59;58.56
70304;BME280;57712;48.752;11.348;2022-08-03T05:50:11;97637.22;;;21.63;60.28
70304;BME280;57712;48.752;11.348;2022-08-03T05:52:39;97639.13;;;21.77;58.33
70304;BME280;57712;48.752;11.348;2022-08-03T05:55:06;97628.91;;;21.95;56.85
70304;BME280;57712;48.752;11.348;2022-08-03T05:57:33;97635.91;;;21.84;59.14
70304;BME280;57712;48.752;11.348;2022-08-03T06:00:04;97640.50;;;21.87;57.61
70304;BME280;57712;48.752;11.348;2022-08-03T06:02:32;97633.06;;;22.05;58.62
70304;BME280;57712;48.752;11.348;2022-08-03T06:04:59;97637.78;;;22.19;56.32
70304;BME280;57712;48.752;11.348;2022-08-03T06:07:26;97637.34;;;22.26;56.98
70304;BME280;57712;48.752;11.348;2022-08-03T06:09:52;97640.13;;;22.21;57.86
70304;BME280;57712;48.752;11.348;2022-08-03T06:12:39;97640.06;;;22.15;57.50
70304;BME280;57712;48.752;11.348;2022-08-03T06:15:07;97646.28;;;22.30;57.33
70304;BME280;57712;48.752;11.348;2022-08-03T06:17:46;97644.03;;;22.34;58.78
70304;BME280;57712;48.752;11.348;2022-08-03T06:20:18;97639.16;;;22.61;58.22
70304;BME280;57712;48.752;11.348;2022-08-03T06:22:45;97639.25;;;22.72;57.67
70304;BME280;57712;48.752;11.348;2022-08-03T06:25:16;97636.97;;;22.76;57.88
70304;BME280;57712;48.752;11.348;2022-08-03T06:27:46;97648.38;;;23.04;57.99
70304;BME280;57712;48.752;11.348;2022-08-03T06:30:13;97652.50;;;23.20;58.38
70304;BME280;57712;48.752;11.348;2022-08-03T06:32:45;97650.56;;;23.43;57.86
70304;BME280;57712;48.752;11.348;2022-08-03T06:35:17;97653.41;;;23.48;57.50
70304;BME280;57712;48.752;11.348;2022-08-03T06:37:49;97651.44;;;23.60;58.93
70304;BME280;57712;48.752;11.348;2022-08-03T06:40:18;97656.13;;;24.02;56.85
70304;BME280;57712;48.752;11.348;2022-08-03T06:42:49;97658.88;;;23.80;55.83
70304;BME280;57712;48.752;11.348;2022-08-03T06:45:16;97654.13;;;24.19;55.68
70304;BME280;57712;48.752;11.348;2022-08-03T06:47:43;97659.75;;;24.36;54.39
70304;BME280;57712;48.752;11.348;2022-08-03T06:50:10;97656.19;;;24.58;54.05
70304;BME280;57712;48.752;11.348;2022-08-03T06:52:43;97662.03;;;24.83;52.50
70304;BME280;57712;48.752;11.348;2022-08-03T06:55:09;97647.50;;;24.90;56.23
70304;BME280;57712;48.752;11.348;2022-08-03T06:57:36;97654.16;;;24.70;54.17
70304;BME280;57712;48.752;11.348;2022-08-03T07:00:03;97660.72;;;25.17;56.01
70304;BME280;57712;48.752;11.348;2022-08-03T07:02:37;97648.72;;;25.28;51.21
70304;BME280;57712;48.752;11.348;2022-08-03T07:05:06;97657.22;;;25.63;50.73
70304;BME280;57712;48.752;11.348;2022-08-03T07:07:33;97656.81;;;26.01;52.72
70304;BME280;57712;48.752;11.348;2022-08-03T07:09:59;97657.94;;;25.86;52.60
70304;BME280;57712;48.752;11.348;2022-08-03T07:12:28;97661.22;;;25.90;52.65
70304;BME280;57712;48.752;11.348;2022-08-03T07:14:56;97652.31;;;25.86;52.42
70304;BME280;57712;48.752;11.348;2022-08-03T07:17:33;97648.97;;;26.29;52.13
70304;BME280;57712;48.752;11.348;2022-08-03T07:20:01;97649.63;;;26.46;50.17
70304;BME280;57712;48.752;11.348;2022-08-03T07:22:28;97651.53;;;26.63;50.17
70304;BME280;57712;48.752;11.348;2022-08-03T07:24:55;97649.69;;;26.71;49.54
70304;BME280;57712;48.752;11.348;2022-08-03T07:27:22;97646.13;;;27.19;49.11
70304;BME280;57712;48.752;11.348;2022-08-03T07:29:48;97644.75;;;27.31;48.42
70304;BME280;57712;48.752;11.348;2022-08-03T07:32:15;97643.00;;;27.47;51.96
70304;BME280;57712;48.752;11.348;2022-08-03T07:34:42;97643.44;;;27.32;49.53
70304;BME280;57712;48.752;11.348;2022-08-03T07:37:09;97650.16;;;27.73;45.78
70304;BME280;57712;48.752;11.348;2022-08-03T07:39:35;97647.84;;;27.71;46.06
70304;BME280;57712;48.752;11.348;2022-08-03T07:42:02;97650.75;;;27.66;48.64
70304;BME280;57712;48.752;11.348;2022-08-03T07:44:29;97648.47;;;27.83;45.48
70304;BME280;57712;48.752;11.348;2022-08-03T07:46:56;97653.69;;;27.92;45.30
70304;BME280;57712;48.752;11.348;2022-08-03T07:49:23;97648.00;;;27.98;44.75
70304;BME280;57712;48.752;11.348;2022-08-03T07:51:50;97652.56;;;28.01;46.80
70304;BME280;57712;48.752;11.348;2022-08-03T07:54:36;97650.72;;;28.03;45.53
70304;BME280;57712;48.752;11.348;2022-08-03T07:57:03;97647.69;;;28.01;44.79
70304;BME280;57712;48.752;11.348;2022-08-03T07:59:29;97654.06;;;28.21;46.31
70304;BME280;57712;48.752;11.348;2022-08-03T08:02:16;97649.59;;;28.76;43.97
70304;BME280;57712;48.752;11.348;2022-08-03T08:04:43;97637.31;;;28.09;44.83
70304;BME280;57712;48.752;11.348;2022-08-03T08:07:10;97644.97;;;28.79;43.47
70304;BME280;57712;48.752;11.348;2022-08-03T08:09:36;97638.50;;;29.63;42.15
70304;BME280;57712;48.752;11.348;2022-08-03T08:12:03;97642.00;;;30.03;43.51
70304;BME280;57712;48.752;11.348;2022-08-03T08:14:40;97640.03;;;30.95;39.32
70304;BME280;57712;48.752;11.348;2022-08-03T08:17:07;97637.78;;;30.52;41.18
70304;BME280;57712;48.752;11.348;2022-08-03T08:19:34;97632.06;;;30.86;39.56
70304;BME280;57712;48.752;11.348;2022-08-03T08:22:04;97627.78;;;30.51;40.92
70304;BME280;57712;48.752;11.348;2022-08-03T08:24:32;97626.47;;;31.22;39.67
70304;BME280;57712;48.752;11.348;2022-08-03T08:26:59;97625.91;;;31.23;37.85
70304;BME280;57712;48.752;11.348;2022-08-03T08:29:29;97626.44;;;30.93;38.40
70304;BME280;57712;48.752;11.348;2022-08-03T08:31:55;97625.78;;;30.59;39.29
70304;BME280;57712;48.752;11.348;2022-08-03T08:34:22;97619.28;;;30.92;38.83
70304;BME280;57712;48.752;11.348;2022-08-03T08:36:48;97620.88;;;30.59;38.22
70304;BME280;57712;48.752;11.348;2022-08-03T08:39:15;97631.22;;;30.57;38.65
70304;BME280;57712;48.752;11.348;2022-08-03T08:41:44;97627.03;;;30.71;38.73
70304;BME280;57712;48.752;11.348;2022-08-03T08:44:13;97622.88;;;30.51;40.53
70304;BME280;57712;48.752;11.348;2022-08-03T08:46:39;97625.31;;;30.68;43.29
70304;BME280;57712;48.752;11.348;2022-08-03T08:49:08;97622.28;;;30.94;37.83
70304;BME280;57712;48.752;11.348;2022-08-03T08:51:38;97617.22;;;30.72;39.38
70304;BME280;57712;48.752;11.348;2022-08-03T08:54:26;97621.59;;;31.01;37.38
70304;BME280;57712;48.752;11.348;2022-08-03T08:56:55;97621.91;;;31.19;36.94
70304;BME280;57712;48.752;11.348;2022-08-03T08:59:23;97617.84;;;31.27;38.74
70304;BME280;57712;48.752;11.348;2022-08-03T09:01:50;97616.53;;;31.36;36.84
70304;BME280;57712;48.752;11.348;2022-08-03T09:04:21;97613.84;;;31.23;36.73
70304;BME280;57712;48.752;11.348;2022-08-03T09:06:48;97612.31;;;31.22;37.99
70304;BME280;57712;48.752;11.348;2022-08-03T09:09:35;97610.53;;;31.40;37.01
70304;BME280;57712;48.752;11.348;2022-08-03T09:12:21;97605.16;;;31.21;37.47
70304;BME280;57712;48.752;11.348;2022-08-03T09:17:44;97607.56;;;31.17;35.75
70304;BME280;57712;48.752;11.348;2022-08-03T09:20:16;97609.13;;;31.62;37.08
70304;BME280;57712;48.752;11.348;2022-08-03T09:23:00;97607.91;;;31.42;35.54
70304;BME280;57712;48.752;11.348;2022-08-03T09:25:57;97600.75;;;31.48;35.23
70304;BME280;57712;48.752;11.348;2022-08-03T09:28:33;97610.91;;;31.44;36.04
70304;BME280;57712;48.752;11.348;2022-08-03T09:31:31;97606.84;;;30.95;40.40
70304;BME280;57712;48.752;11.348;2022-08-03T09:34:03;97601.41;;;30.97;42.07
70304;BME280;57712;48.752;11.348;2022-08-03T09:36:34;97601.59;;;30.99;39.99
70304;BME280;57712;48.752;11.348;2022-08-03T09:39:04;97602.94;;;31.27;36.89
70304;BME280;57712;48.752;11.348;2022-08-03T09:41:32;97601.91;;;31.17;35.10
70304;BME280;57712;48.752;11.348;2022-08-03T09:43:59;97608.75;;;31.65;34.21
70304;BME280;57712;48.752;11.348;2022-08-03T09:46:25;97611.88;;;31.82;34.22
70304;BME280;57712;48.752;11.348;2022-08-03T09:49:10;97603.75;;;31.86;32.91
70304;BME280;57712;48.752;11.348;2022-08-03T09:51:39;97598.88;;;31.51;33.70
70304;BME280;57712;48.752;11.348;2022-08-03T09:54:30;97603.25;;;32.18;35.94
70304;BME280;57712;48.752;11.348;2022-08-03T09:56:57;97609.38;;;32.53;34.18
70304;BME280;57712;48.752;11.348;2022-08-03T09:59:28;97603.69;;;32.38;33.75
70304;BME280;57712;48.752;11.348;2022-08-03T10:01:56;97602.38;;;32.47;33.08
70304;BME280;57712;48.752;11.348;2022-08-03T10:04:23;97596.69;;;33.00;30.04
70304;BME280;57712;48.752;11.348;2022-08-03T10:07:10;97588.94;;;33.64;29.68
70304;BME280;57712;48.752;11.348;2022-08-03T10:09:37;97590.38;;;33.88;33.02
70304;BME280;57712;48.752;11.348;2022-08-03T10:12:11;97576.13;;;34.70;27.89
70304;BME280;57712;48.752;11.348;2022-08-03T10:14:39;97575.72;;;35.33;27.66
70304;BME280;57712;48.752;11.348;2022-08-03T10:17:11;97582.25;;;35.26;27.82
70304;BME280;57712;48.752;11.348;2022-08-03T10:19:38;97576.81;;;34.61;30.81
70304;BME280;57712;48.752;11.348;2022-08-03T10:22:12;97580.03;;;34.82;29.41
70304;BME280;57712;48.752;11.348;2022-08-03T10:24:45;97576.59;;;35.88;27.85
70304;BME280;57712;48.752;11.348;2022-08-03T10:27:13;97569.94;;;35.85;27.66
70304;BME280;57712;48.752;11.348;2022-08-03T10:29:48;97566.13;;;36.27;26.40
70304;BME280;57712;48.752;11.348;2022-08-03T10:32:27;97555.69;;;34.89;28.21
70304;BME280;57712;48.752;11.348;2022-08-03T10:35:04;97554.44;;;34.57;29.42
70304;BME280;57712;48.752;11.348;2022-08-03T10:38:11;97553.94;;;35.45;28.43
70304;BME280;57712;48.752;11.348;2022-08-03T10:40:42;97555.34;;;35.54;27.23
70304;BME280;57712;48.752;11.348;2022-08-03T10:43:52;97549.75;;;34.94;28.16
70304;BME280;57712;48.752;11.348;2022-08-03T10:46:22;97550.53;;;34.87;30.13
70304;BME280;57712;48.752;11.348;2022-08-03T10:48:49;97552.66;;;35.56;26.32
70304;BME280;57712;48.752;11.348;2022-08-03T10:51:18;97552.44;;;36.25;27.31
70304;BME280;57712;48.752;11.348;2022-08-03T10:53:45;97544.47;;;36.51;26.41
70304;BME280;57712;48.752;11.348;2022-08-03T10:59:18;97537.13;;;36.67;27.26
70304;BME280;57712;48.752;11.348;2022-08-03T11:01:55;97531.13;;;35.28;28.49
70304;BME280;57712;48.752;11.348;2022-08-03T11:04:26;97543.19;;;35.36;26.58
70304;BME280;57712;48.752;11.348;2022-08-03T11:09:43;97531.25;;;36.65;25.17
70304;BME280;57712;48.752;11.348;2022-08-03T11:12:24;97521.66;;;36.24;24.75
70304;BME280;57712;48.752;11.348;2022-08-03T11:15:02;97530.38;;;36.26;24.87
70304;BME280;57712;48.752;11.348;2022-08-03T11:17:31;97527.94;;;35.85;24.98
70304;BME280;57712;48.752;11.348;2022-08-03T11:19:58;97520.41;;;36.07;24.35
70304;BME280;57712;48.752;11.348;2022-08-03T11:22:48;97519.47;;;35.78;25.27
70304;BME280;57712;48.752;11.348;2022-08-03T11:25:16;97520.44;;;36.63;24.67
70304;BME280;57712;48.752;11.348;2022-08-03T11:28:24;97522.47;;;36.90;25.03
70304;BME280;57712;48.752;11.348;2022-08-03T11:30:52;97509.13;;;36.46;23.92
70304;BME280;57712;48.752;11.348;2022-08-03T11:33:29;97517.19;;;37.06;23.54
70304;BME280;57712;48.752;11.348;2022-08-03T11:35:58;97516.13;;;37.20;23.70
70304;BME280;57712;48.752;11.348;2022-08-03T11:38:25;97515.38;;;36.81;22.27
70304;BME280;57712;48.752;11.348;2022-08-03T11:40:52;97508.91;;;37.19;23.22
70304;BME280;57712;48.752;11.348;2022-08-03T11:46:02;97506.66;;;36.98;24.05
70304;BME280;57712;48.752;11.348;2022-08-03T11:53:44;97501.78;;;35.79;24.17
70304;BME280;57712;48.752;11.348;2022-08-03T11:56:13;97501.69;;;37.18;24.02
70304;BME280;57712;48.752;11.348;2022-08-03T11:58:47;97504.53;;;36.80;23.07
70304;BME280;57712;48.752;11.348;2022-08-03T12:01:34;97487.25;;;37.55;21.96
70304;BME280;57712;48.752;11.348;2022-08-03T12:04:02;97495.22;;;37.47;23.24
70304;BME280;57712;48.752;11.348;2022-08-03T12:06:30;97490.13;;;37.16;22.65
70304;BME280;57712;48.752;11.348;2022-08-03T12:08:56;97489.06;;;37.41;22.99
70304;BME280;57712;48.752;11.348;2022-08-03T12:11:23;97486.81;;;36.81;22.40
70304;BME280;57712;48.752;11.348;2022-08-03T12:13:50;97483.72;;;37.86;23.67
70304;BME280;57712;48.752;11.348;2022-08-03T12:16:36;97476.56;;;37.46;22.19
70304;BME280;57712;48.752;11.348;2022-08-03T12:19:04;97478.78;;;36.41;22.16
70304;BME280;57712;48.752;11.348;2022-08-03T12:21:32;97481.84;;;37.20;21.49
70304;BME280;57712;48.752;11.348;2022-08-03T12:24:03;97478.28;;;36.91;21.94
70304;BME280;57712;48.752;11.348;2022-08-03T12:26:48;97471.94;;;36.27;23.63
70304;BME280;57712;48.752;11.348;2022-08-03T12:29:24;97475.78;;;36.02;22.76
70304;BME280;57712;48.752;11.348;2022-08-03T12:31:51;97475.84;;;36.97;22.96
70304;BME280;57712;48.752;11.348;2022-08-03T12:34:18;97476.97;;;36.36;22.93
70304;BME280;57712;48.752;11.348;2022-08-03T12:36:53;97469.66;;;37.20;23.09
70304;BME280;57712;48.752;11.348;2022-08-03T12:39:22;97468.94;;;37.00;20.71
70304;BME280;57712;48.752;11.348;2022-08-03T12:41:52;97469.81;;;36.74;21.34
70304;BME280;57712;48.752;11.348;2022-08-03T12:44:28;97473.06;;;36.41;23.38
70304;BME280;57712;48.752;11.348;2022-08-03T12:46:57;97467.56;;;36.72;22.46
70304;BME280;57712;48.752;11.348;2022-08-03T12:49:24;97461.56;;;37.16;22.11
70304;BME280;57712;48.752;11.348;2022-08-03T12:54:20;97451.06;;;36.90;21.28
70304;BME280;57712;48.752;11.348;2022-08-03T12:59:32;97459.91;;;37.13;22.25
70304;BME280;57712;48.752;11.348;2022-08-03T13:02:13;97464.53;;;36.60;20.68
70304;BME280;57712;48.752;11.348;2022-08-03T13:04:43;97456.13;;;36.62;21.70
70304;BME280;57712;48.752;11.348;2022-08-03T13:07:15;97451.91;;;36.73;20.64
70304;BME280;57712;48.752;11.348;2022-08-03T13:09:48;97459.47;;;36.88;21.13
70304;BME280;57712;48.752;11.348;2022-08-03T13:12:16;97457.66;;;37.12;23.51
70304;BME280;57712;48.752;11.348;2022-08-03T13:14:45;97457.25;;;36.30;20.61
70304;BME280;57712;48.752;11.348;2022-08-03T13:17:13;97458.81;;;36.04;21.29
70304;BME280;57712;48.752;11.348;2022-08-03T13:19:42;97448.19;;;35.78;20.99
70304;BME280;57712;48.752;11.348;2022-08-03T13:22:23;97453.38;;;35.89;21.78
70304;BME280;57712;48.752;11.348;2022-08-03T13:24:52;97453.91;;;35.51;21.86
70304;BME280;57712;48.752;11.348;2022-08-03T13:27:21;97459.16;;;35.45;23.98
70304;BME280;57712;48.752;11.348;2022-08-03T13:30:08;97452.56;;;35.08;22.72
70304;BME280;57712;48.752;11.348;2022-08-03T13:32:35;97447.16;;;35.46;22.03
70304;BME280;57712;48.752;11.348;2022-08-03T13:35:02;97447.50;;;35.33;22.50
70304;BME280;57712;48.752;11.348;2022-08-03T13:37:30;97446.31;;;35.36;20.58
70304;BME280;57712;48.752;11.348;2022-08-03T13:39:58;97447.50;;;35.33;23.12
70304;BME280;57712;48.752;11.348;2022-08-03T13:42:30;97444.31;;;35.29;22.89
70304;BME280;57712;48.752;11.348;2022-08-03T13:44:58;97440.69;;;34.84;23.56
70304;BME280;57712;48.752;11.348;2022-08-03T13:47:25;97436.31;;;35.00;22.30